Time;durP1;ratioP1;P1;durP2;ratioP2;P2;SDS_P1;SDS_P2;PMS_P1;PMS_P2;Temp;Humidity;BMP_temperature;BMP_pressure;BME280_temperature;BME280_humidity;BME280_pressure;Samples;Min_cycle;Max_cycle;Signal;HPM_P1;HPM_P2
2021/01/12 00:00:32;;;;;;;;;;;;;;;14.96;56.07;101547.81;4972876;28;759;-72
2021/01/12 00:02:59;;;;;;;;;;;;;;;14.93;55.62;101549.66;4972904;28;1371;-72
2021/01/12 00:05:26;;;;;;;;;;;;;;;14.94;55.97;101547.00;4972741;28;1975;-72
2021/01/12 00:07:52;;;;;;;;;;;;;;;14.92;55.71;101543.56;4972943;28;1358;-71
2021/01/12 00:10:19;;;;;;;;;;;;;;;14.87;56.13;101539.34;4972619;28;847;-72
2021/01/12 00:12:45;;;;;;;;;;;;;;;14.91;55.92;101533.13;4972627;28;1287;-73
2021/01/12 00:15:26;;;;;;;;;;;;;;;14.88;55.65;101534.06;4972771;28;886;-71
2021/01/12 00:17:52;;;;;;;;;;;;;;;14.88;55.92;101527.94;4972483;28;1265;-74
2021/01/12 00:20:19;;;;;;;;;;;;;;;14.88;55.83;101514.84;4971289;28;777;-72
2021/01/12 00:22:45;;;;;;;;;;;;;;;14.83;55.95;101511.50;4972709;28;1271;-72
2021/01/12 00:25:12;;;;;;;;;;;;;;;14.83;55.91;101516.75;4972365;28;1908;-71
2021/01/12 00:27:54;;;;;;;;;;;;;;;14.84;55.88;101523.69;4972615;28;1351;-69
2021/01/12 00:30:21;;;;;;;;;;;;;;;14.83;56.48;101519.38;4971013;28;882;-70
2021/01/12 00:32:47;;;;;;;;;;;;;;;14.81;56.50;101516.78;4972566;28;1242;-70
2021/01/12 00:35:13;;;;;;;;;;;;;;;14.78;55.89;101515.09;4971109;28;815;-71
2021/01/12 00:37:41;;;;;;;;;;;;;;;14.84;55.93;101521.06;4971248;28;1333;-72
2021/01/12 00:40:07;;;;;;;;;;;;;;;14.82;56.34;101530.75;4972748;28;802;-71
2021/01/12 00:42:34;;;;;;;;;;;;;;;14.74;56.06;101523.13;4972515;28;1261;-72
2021/01/12 00:45:09;;;;;;;;;;;;;;;14.81;56.12;101513.28;4973064;28;1906;-72
2021/01/12 00:47:44;;;;;;;;;;;;;;;14.78;55.59;101512.47;5021409;23;1674;-73
2021/01/12 00:50:18;;;;;;;;;;;;;;;14.70;56.17;101503.97;5010976;28;1100;-71
2021/01/12 00:52:47;;;;;;;;;;;;;;;14.69;55.79;101512.75;5018488;28;1318;-72
2021/01/12 00:55:13;;;;;;;;;;;;;;;14.70;56.08;101511.84;5029372;28;1477;-71
2021/01/12 00:57:41;;;;;;;;;;;;;;;14.70;55.85;101511.84;5037533;22;1691;-72
2021/01/12 01:00:07;;;;;;;;;;;;;;;14.73;55.92;101506.50;5030411;28;1246;-71
2021/01/12 01:02:34;;;;;;;;;;;;;;;14.69;55.72;101520.59;5030793;28;1288;-71
2021/01/12 01:05:04;;;;;;;;;;;;;;;14.70;56.17;101506.59;5030159;28;1898;-74
2021/01/12 01:07:34;;;;;;;;;;;;;;;14.67;56.21;101511.94;5029611;28;1220;-72
2021/01/12 01:10:01;;;;;;;;;;;;;;;14.65;56.31;101524.19;5029275;28;1044;-70
2021/01/12 01:12:27;;;;;;;;;;;;;;;14.68;55.94;101515.41;5028648;28;1335;-71
2021/01/12 01:15:00;;;;;;;;;;;;;;;14.63;55.94;101514.66;5029189;28;1093;-72
2021/01/12 01:17:26;;;;;;;;;;;;;;;14.68;55.86;101513.63;5030360;28;1314;-71
2021/01/12 01:19:52;;;;;;;;;;;;;;;14.63;55.84;101523.41;5028642;28;1314;-71
2021/01/12 01:22:22;;;;;;;;;;;;;;;14.58;55.63;101522.69;5030065;28;1157;-70
2021/01/12 01:24:48;;;;;;;;;;;;;;;14.58;55.86;101525.31;5028762;28;1902;-71
2021/01/12 01:27:14;;;;;;;;;;;;;;;14.60;55.82;101518.25;5028628;28;1220;-71
2021/01/12 01:29:41;;;;;;;;;;;;;;;14.58;56.06;101525.31;5030117;28;1041;-71
2021/01/12 01:32:09;;;;;;;;;;;;;;;14.58;55.50;101527.91;5028495;28;1223;-71
2021/01/12 01:34:35;;;;;;;;;;;;;;;14.53;55.65;101532.41;5029925;28;1135;-72
2021/01/12 01:37:02;;;;;;;;;;;;;;;14.61;55.61;101532.22;5029687;28;1295;-71
2021/01/12 01:39:28;;;;;;;;;;;;;;;14.57;55.79;101528.81;5029685;28;1022;-71
2021/01/12 01:41:59;;;;;;;;;;;;;;;14.55;55.64;101528.00;5028374;28;1224;-72
2021/01/12 01:44:25;;;;;;;;;;;;;;;14.58;55.95;101521.81;5028269;28;1973;-71
2021/01/12 01:46:51;;;;;;;;;;;;;;;14.59;55.56;101528.78;5029665;28;804;-71
2021/01/12 01:49:18;;;;;;;;;;;;;;;14.52;56.24;101529.84;5029689;28;1304;-68
2021/01/12 01:51:46;;;;;;;;;;;;;;;14.54;56.06;101528.91;5029570;28;1190;-68
2021/01/12 01:54:13;;;;;;;;;;;;;;;14.52;55.82;101530.72;5027438;28;1359;-68
2021/01/12 01:56:39;;;;;;;;;;;;;;;14.52;55.84;101529.84;5029524;28;1079;-68
2021/01/12 01:59:06;;;;;;;;;;;;;;;14.52;56.23;101527.22;5029571;28;1489;-69
2021/01/12 02:01:36;;;;;;;;;;;;;;;14.53;55.90;101518.47;5028048;28;822;-71
2021/01/12 02:04:10;;;;;;;;;;;;;;;14.54;56.09;101535.91;5027716;28;1910;-69
2021/01/12 02:06:37;;;;;;;;;;;;;;;14.44;55.91;101540.53;5029554;28;834;-69
2021/01/12 02:09:10;;;;;;;;;;;;;;;14.50;56.68;101547.38;5029261;28;1405;-68
2021/01/12 02:11:45;;;;;;;;;;;;;;;14.50;56.36;101550.84;5029218;28;790;-69
2021/01/12 02:14:14;;;;;;;;;;;;;;;14.49;56.60;101546.53;5029132;28;1322;-67
2021/01/12 02:16:49;;;;;;;;;;;;;;;14.44;56.41;101558.03;5027660;28;1330;-69
2021/01/12 02:19:17;;;;;;;;;;;;;;;14.50;56.45;101556.09;5027908;28;1199;-68
2021/01/12 02:21:45;;;;;;;;;;;;;;;14.45;56.48;101552.72;5027789;28;829;-69
2021/01/12 02:24:12;;;;;;;;;;;;;;;14.48;56.33;101555.28;5028648;28;1910;-68
2021/01/12 02:26:38;;;;;;;;;;;;;;;14.45;56.40;101552.72;5027586;28;1595;-68
2021/01/12 02:29:05;;;;;;;;;;;;;;;14.45;56.38;101551.88;5028675;28;1322;-69
2021/01/12 02:31:34;;;;;;;;;;;;;;;14.47;56.42;101556.16;5028857;28;826;-68
2021/01/12 02:34:04;;;;;;;;;;;;;;;14.39;56.53;101558.13;5028914;28;1224;-69
2021/01/12 02:36:31;;;;;;;;;;;;;;;14.36;56.62;101545.13;5027477;28;1003;-68
2021/01/12 02:38:58;;;;;;;;;;;;;;;14.41;56.19;101540.59;5028744;28;1255;-67
2021/01/12 02:41:28;;;;;;;;;;;;;;;14.34;56.71;101551.31;5028676;28;1084;-67
2021/01/12 02:43:54;;;;;;;;;;;;;;;14.39;56.01;101554.66;5028720;28;1965;-67
2021/01/12 02:46:20;;;;;;;;;;;;;;;14.41;56.29;101556.31;5028733;28;814;-68
2021/01/12 02:48:47;;;;;;;;;;;;;;;14.38;55.81;101559.03;5028615;28;1223;-68
2021/01/12 02:51:13;;;;;;;;;;;;;;;14.31;56.31;101552.22;5027630;28;1274;-68
2021/01/12 02:53:39;;;;;;;;;;;;;;;14.32;56.43;101566.19;5027148;28;1331;-69
2021/01/12 02:56:05;;;;;;;;;;;;;;;14.31;56.27;101567.06;5028762;28;1147;-69
2021/01/12 02:58:32;;;;;;;;;;;;;;;14.32;56.26;101559.16;5027270;28;1409;-68
2021/01/12 03:00:58;;;;;;;;;;;;;;;14.29;56.49;101564.47;5029061;28;1197;-68
2021/01/12 03:03:25;;;;;;;;;;;;;;;14.30;56.47;101555.72;5028638;28;1311;-68
2021/01/12 03:05:51;;;;;;;;;;;;;;;14.29;56.69;101558.41;5029260;28;1918;-67
2021/01/12 03:08:17;;;;;;;;;;;;;;;14.35;56.37;101560.91;5032628;28;1323;-68
2021/01/12 03:10:43;;;;;;;;;;;;;;;14.26;56.42;101561.94;5032834;28;1166;-69
2021/01/12 03:13:09;;;;;;;;;;;;;;;14.28;56.64;101549.66;5032712;28;1312;-67
2021/01/12 03:15:37;;;;;;;;;;;;;;;14.30;56.45;101544.38;5032970;28;919;-67
2021/01/12 03:18:03;;;;;;;;;;;;;;;14.26;56.51;101538.34;5032626;28;1233;-68
2021/01/12 03:20:29;;;;;;;;;;;;;;;14.29;56.76;101540.88;5032405;28;1444;-68
2021/01/12 03:22:56;;;;;;;;;;;;;;;14.25;56.40;101544.50;5032431;28;1173;-68
2021/01/12 03:25:22;;;;;;;;;;;;;;;14.25;56.32;101544.50;5030739;28;1906;-68
2021/01/12 03:27:48;;;;;;;;;;;;;;;14.27;56.38;101542.69;5032239;28;1208;-67
2021/01/12 03:30:15;;;;;;;;;;;;;;;14.22;56.24;101537.59;5032408;28;1052;-68
2021/01/12 03:32:41;;;;;;;;;;;;;;;14.24;56.14;101532.28;5032283;28;1229;-68
2021/01/12 03:35:08;;;;;;;;;;;;;;;14.19;56.29;101535.03;5030660;28;1183;-68
2021/01/12 03:37:35;;;;;;;;;;;;;;;14.24;56.26;101537.53;5032224;28;1181;-67
2021/01/12 03:40:02;;;;;;;;;;;;;;;14.20;56.26;101547.22;5030619;28;1455;-69
2021/01/12 03:42:28;;;;;;;;;;;;;;;14.19;56.53;101549.91;5032138;28;1338;-68
2021/01/12 03:44:54;;;;;;;;;;;;;;;14.19;56.18;101553.34;5032337;28;1910;-67
2021/01/12 03:47:20;;;;;;;;;;;;;;;14.21;56.66;101558.59;5030405;28;1229;-67
2021/01/12 03:49:47;;;;;;;;;;;;;;;14.17;56.64;101562.16;5030506;28;1354;-67
2021/01/12 03:52:13;;;;;;;;;;;;;;;14.15;56.47;101563.97;5031765;28;1316;-67
2021/01/12 03:54:40;;;;;;;;;;;;;;;14.20;56.63;101556.84;5031880;28;884;-67
2021/01/12 03:57:06;;;;;;;;;;;;;;;14.16;56.64;101547.38;5031658;28;1216;-67
2021/01/12 03:59:32;;;;;;;;;;;;;;;14.14;56.17;101543.91;5031742;28;1149;-67
2021/01/12 04:01:59;;;;;;;;;;;;;;;14.15;56.58;101546.50;5031765;28;1233;-68
2021/01/12 04:04:25;;;;;;;;;;;;;;;14.17;56.37;101546.44;5031467;28;1898;-68
2021/01/12 04:06:51;;;;;;;;;;;;;;;14.19;56.48;101547.28;5031497;28;1080;-68
2021/01/12 04:09:17;;;;;;;;;;;;;;;14.12;56.80;101538.72;5031431;28;1252;-68
2021/01/12 04:11:44;;;;;;;;;;;;;;;14.10;56.26;101542.28;5031431;28;778;-69
2021/01/12 04:14:11;;;;;;;;;;;;;;;14.11;56.73;101546.59;5031392;28;1249;-69
2021/01/12 04:16:37;;;;;;;;;;;;;;;14.12;56.37;101543.97;5030889;28;774;-69
2021/01/12 04:19:03;;;;;;;;;;;;;;;14.12;56.16;101543.09;5031205;28;1270;-68
2021/01/12 04:21:30;;;;;;;;;;;;;;;14.09;56.28;101537.94;5029783;28;1211;-69
2021/01/12 04:23:56;;;;;;;;;;;;;;;14.10;56.54;101544.91;5013377;28;1991;-68
2021/01/12 04:26:22;;;;;;;;;;;;;;;14.06;56.25;101544.09;5031197;28;1092;-69
2021/01/12 04:28:48;;;;;;;;;;;;;;;14.09;56.46;101540.53;5029567;28;1322;-69
2021/01/12 04:31:15;;;;;;;;;;;;;;;14.06;56.25;101540.63;5029732;28;1192;-69
2021/01/12 04:33:41;;;;;;;;;;;;;;;14.04;56.61;101542.44;5030911;28;1291;-69
2021/01/12 04:36:07;;;;;;;;;;;;;;;14.05;56.47;101531.03;5013184;28;1371;-67
2021/01/12 04:38:34;;;;;;;;;;;;;;;14.01;56.42;101522.38;5031268;28;1233;-69
2021/01/12 04:41:00;;;;;;;;;;;;;;;14.07;56.63;101518.78;5029885;28;925;-69
2021/01/12 04:43:26;;;;;;;;;;;;;;;14.04;56.43;101509.22;5030844;28;1311;-69
2021/01/12 04:45:52;;;;;;;;;;;;;;;14.03;56.36;101511.88;5031306;28;2021;-68
2021/01/12 04:48:19;;;;;;;;;;;;;;;14.01;56.54;101522.38;5029510;28;1573;-68
2021/01/12 04:50:45;;;;;;;;;;;;;;;14.04;56.04;101511.81;5030760;28;1073;-69
2021/01/12 04:53:11;;;;;;;;;;;;;;;14.01;56.31;101527.63;5029431;28;1326;-68
2021/01/12 04:55:40;;;;;;;;;;;;;;;14.00;56.56;101527.69;5029175;28;989;-70
2021/01/12 04:58:07;;;;;;;;;;;;;;;13.99;56.62;101528.56;5029379;28;1683;-69
2021/01/12 05:00:33;;;;;;;;;;;;;;;13.98;56.47;101529.50;5029438;28;1152;-68
2021/01/12 05:03:07;;;;;;;;;;;;;;;13.95;56.12;101524.31;5029164;28;1283;-69
2021/01/12 05:05:37;;;;;;;;;;;;;;;13.94;56.57;101527.84;5030837;28;1910;-68
2021/01/12 05:08:04;;;;;;;;;;;;;;;13.99;56.77;101533.81;5030415;28;1232;-69
2021/01/12 05:10:34;;;;;;;;;;;;;;;13.99;56.20;101533.81;5030754;28;1138;-69
2021/01/12 05:13:01;;;;;;;;;;;;;;;13.98;56.56;101543.41;5029250;28;1251;-68
2021/01/12 05:15:28;;;;;;;;;;;;;;;13.94;56.15;101543.53;5030903;28;1054;-68
2021/01/12 05:17:59;;;;;;;;;;;;;;;13.95;56.73;101551.34;5011624;28;1564;-69
2021/01/12 05:20:26;;;;;;;;;;;;;;;13.92;56.33;101553.22;5030231;28;1339;-69
2021/01/12 05:23:18;;;;;;;;;;;;;;;13.93;56.31;101550.53;5030478;28;1331;-68
2021/01/12 05:25:48;;;;;;;;;;;;;;;13.93;57.02;101552.28;5041970;28;1914;-68
2021/01/12 05:28:34;;;;;;;;;;;;;;;13.89;56.71;101561.16;5028228;28;1328;-67
2021/01/12 05:31:04;;;;;;;;;;;;;;;13.88;56.22;101570.75;5030663;28;1050;-68
2021/01/12 05:33:32;;;;;;;;;;;;;;;13.88;56.91;101570.75;5012379;28;1375;-68
2021/01/12 05:35:59;;;;;;;;;;;;;;;13.88;56.44;101570.75;5030408;28;1184;-68
2021/01/12 05:38:29;;;;;;;;;;;;;;;13.88;56.57;101573.38;5028726;28;1341;-69
2021/01/12 05:40:56;;;;;;;;;;;;;;;13.91;56.42;101573.31;5028710;28;1469;-69
2021/01/12 05:43:34;;;;;;;;;;;;;;;13.89;56.23;101567.22;5029635;28;1296;-69
2021/01/12 05:46:05;;;;;;;;;;;;;;;13.87;56.24;101568.16;5028334;28;1914;-68
2021/01/12 05:48:32;;;;;;;;;;;;;;;13.85;56.14;101570.81;5029624;28;1320;-68
2021/01/12 05:51:01;;;;;;;;;;;;;;;13.84;56.50;101568.22;5030117;28;1219;-68
2021/01/12 05:53:35;;;;;;;;;;;;;;;13.83;56.76;101566.53;5028102;28;1293;-69
2021/01/12 05:56:02;;;;;;;;;;;;;;;13.84;56.67;101563.84;5030110;28;1042;-68
2021/01/12 05:58:30;;;;;;;;;;;;;;;13.89;56.03;101569.00;5029610;28;1445;-68
2021/01/12 06:01:01;;;;;;;;;;;;;;;13.92;55.84;101576.78;5028240;28;1167;-69
2021/01/12 06:03:33;;;;;;;;;;;;;;;13.86;56.03;101569.91;5029228;28;1245;-67
2021/01/12 06:05:59;;;;;;;;;;;;;;;13.84;56.06;101576.09;5011775;28;1997;-70
2021/01/12 06:08:25;;;;;;;;;;;;;;;13.83;56.05;101574.38;5029113;28;1335;-68
2021/01/12 06:10:53;;;;;;;;;;;;;;;13.82;56.56;101580.50;5027968;28;1506;-69
2021/01/12 06:13:19;;;;;;;;;;;;;;;13.83;56.46;101580.47;5029303;28;1226;-69
2021/01/12 06:15:47;;;;;;;;;;;;;;;13.81;56.60;101579.63;5029433;28;1156;-69
2021/01/12 06:18:14;;;;;;;;;;;;;;;13.78;56.66;101578.84;5029030;28;1316;-69
2021/01/12 06:20:56;;;;;;;;;;;;;;;13.76;56.30;101572.78;5027831;28;1036;-70
2021/01/12 06:23:44;;;;;;;;;;;;;;;13.78;56.43;101563.13;5027623;28;1398;-70
2021/01/12 06:26:13;;;;;;;;;;;;;;;13.84;56.69;101561.25;5028194;28;1965;-71
2021/01/12 06:28:43;;;;;;;;;;;;;;;13.95;57.05;101558.38;5028862;28;1304;-72
2021/01/12 06:31:10;;;;;;;;;;;;;;;14.07;57.11;101561.53;5043684;28;1565;-70
2021/01/12 06:33:37;;;;;;;;;;;;;;;14.06;56.65;101554.59;5028796;28;1243;-71
2021/01/12 06:36:05;;;;;;;;;;;;;;;14.25;56.52;101560.22;5026979;28;1003;-70
2021/01/12 06:38:38;;;;;;;;;;;;;;;14.32;56.86;101559.16;5027060;28;1281;-69
2021/01/12 06:41:07;;;;;;;;;;;;;;;14.48;56.26;101550.03;5028488;28;794;-75
2021/01/12 06:43:34;;;;;;;;;;;;;;;15.05;55.91;101541.44;5028591;28;1213;-70
2021/01/12 06:46:01;;;;;;;;;;;;;;;15.01;55.85;101539.81;5029013;28;1961;-68
2021/01/12 06:48:41;;;;;;;;;;;;;;;15.06;55.53;101548.41;5043592;28;1394;-69
2021/01/12 06:51:08;;;;;;;;;;;;;;;15.12;55.54;101546.47;5028690;28;802;-71
2021/01/12 06:53:34;;;;;;;;;;;;;;;15.34;55.43;101565.06;5027193;28;1303;-73
2021/01/12 06:56:07;;;;;;;;;;;;;;;15.59;55.07;101557.34;5029534;28;931;-69
2021/01/12 06:58:33;;;;;;;;;;;;;;;15.61;54.36;101569.53;5027047;28;1833;-72
2021/01/12 07:01:00;;;;;;;;;;;;;;;15.61;54.64;101566.91;5023084;28;1723;-74
2021/01/12 07:03:29;;;;;;;;;;;;;;;15.59;54.54;101571.34;5027011;28;1353;-72
2021/01/12 07:05:59;;;;;;;;;;;;;;;15.64;54.33;101556.28;5028768;28;1914;-71
2021/01/12 07:08:26;;;;;;;;;;;;;;;15.71;54.16;101573.59;5026954;28;1319;-71
2021/01/12 07:11:01;;;;;;;;;;;;;;;15.72;54.39;101563.91;5043779;28;1397;-72
2021/01/12 07:13:39;;;;;;;;;;;;;;;15.76;54.16;101571.66;5028625;28;1248;-72
2021/01/12 07:16:15;;;;;;;;;;;;;;;15.80;54.33;101578.56;5028512;28;1206;-68
2021/01/12 07:18:56;;;;;;;;;;;;;;;15.85;53.98;101574.00;5011078;28;1413;-68
2021/01/12 07:21:29;;;;;;;;;;;;;;;15.89;53.87;101576.53;5026903;28;1310;-70
2021/01/12 07:24:03;;;;;;;;;;;;;;;15.88;54.03;101593.19;5026808;28;1411;-70
2021/01/12 07:26:32;;;;;;;;;;;;;;;15.88;53.91;101585.31;5027041;28;781;-70
2021/01/12 07:29:05;;;;;;;;;;;;;;;15.92;54.13;101593.06;5028341;28;1205;-71
2021/01/12 07:31:31;;;;;;;;;;;;;;;15.98;54.43;101592.00;5028302;28;774;-73
2021/01/12 07:33:58;;;;;;;;;;;;;;;15.98;54.01;101600.75;5026699;28;1548;-73
2021/01/12 07:36:25;;;;;;;;;;;;;;;15.91;54.09;101606.25;5028287;28;849;-71
2021/01/12 07:38:51;;;;;;;;;;;;;;;15.82;54.17;101605.63;5029845;28;1225;-72
2021/01/12 07:41:20;;;;;;;;;;;;;;;15.80;51.94;101614.47;5013560;28;1388;-74
2021/01/12 07:43:46;;;;;;;;;;;;;;;15.87;52.69;101621.22;5028507;28;1268;-69
2021/01/12 07:46:22;;;;;;;;;;;;;;;15.88;50.36;101614.22;5010433;28;1973;-72
2021/01/12 07:48:49;;;;;;;;;;;;;;;15.88;53.20;101624.72;5030722;28;1269;-69
2021/01/12 07:51:15;;;;;;;;;;;;;;;15.78;50.25;101608.38;5028977;28;1493;-71
2021/01/12 07:53:42;;;;;;;;;;;;;;;15.81;50.12;101621.41;5031794;28;1263;-77
2021/01/12 07:56:08;;;;;;;;;;;;;;;15.70;49.85;101619.16;5014129;28;1118;-75
2021/01/12 07:58:35;;;;;;;;;;;;;;;15.63;49.80;101628.09;5013807;28;1597;-75
2021/01/12 08:01:01;;;;;;;;;;;;;;;15.57;48.23;101628.28;5030423;28;1042;-72
2021/01/12 08:03:41;;;;;;;;;;;;;;;15.57;49.04;101633.53;5032272;28;1276;-75
2021/01/12 08:06:09;;;;;;;;;;;;;;;15.51;46.48;101633.72;5029796;28;1973;-72
2021/01/12 08:08:35;;;;;;;;;;;;;;;15.49;47.04;101643.41;5031809;28;1229;-74
2021/01/12 08:11:03;;;;;;;;;;;;;;;15.65;47.02;101636.81;5031901;28;1130;-73
2021/01/12 08:13:30;;;;;;;;;;;;;;;15.80;49.47;101631.09;5046181;28;1284;-71
2021/01/12 08:15:57;;;;;;;;;;;;;;;15.84;51.76;101634.47;5031969;28;1076;-73
2021/01/12 08:18:30;;;;;;;;;;;;;;;15.82;52.76;101633.66;5029835;28;1414;-74
2021/01/12 08:20:56;;;;;;;;;;;;;;;15.85;52.75;101639.69;5031282;28;1056;-72
2021/01/12 08:23:23;;;;;;;;;;;;;;;15.83;53.07;101640.66;5031352;28;1189;-73
2021/01/12 08:25:50;;;;;;;;;;;;;;;15.80;53.02;101646.88;5029626;28;2004;-73
2021/01/12 08:28:16;;;;;;;;;;;;;;;15.85;52.79;101650.19;5030555;28;1227;-73
2021/01/12 08:30:43;;;;;;;;;;;;;;;15.84;52.96;101656.34;5029459;28;1266;-74
2021/01/12 08:33:15;;;;;;;;;;;;;;;15.82;53.27;101660.81;5029483;28;1312;-72
2021/01/12 08:35:46;;;;;;;;;;;;;;;15.87;52.76;101667.69;5030931;28;935;-74
2021/01/12 08:38:13;;;;;;;;;;;;;;;15.87;52.85;101659.81;5029411;28;1245;-74
2021/01/12 08:40:41;;;;;;;;;;;;;;;15.86;52.95;101658.94;5030938;28;998;-72
2021/01/12 08:43:16;;;;;;;;;;;;;;;15.93;52.49;101662.25;5029345;28;1342;-73
2021/01/12 08:45:43;;;;;;;;;;;;;;;15.88;52.83;101667.63;5029355;28;1918;-71
2021/01/12 08:48:11;;;;;;;;;;;;;;;15.84;52.99;101680.00;5030824;28;1284;-71
2021/01/12 08:50:38;;;;;;;;;;;;;;;15.87;52.73;101691.34;5030765;28;777;-71
2021/01/12 08:53:05;;;;;;;;;;;;;;;15.87;52.36;101691.34;5045806;28;1252;-72
2021/01/12 08:55:31;;;;;;;;;;;;;;;15.89;52.77;101693.00;5029138;28;1159;-73
2021/01/12 08:57:59;;;;;;;;;;;;;;;15.85;52.86;101689.63;5030761;28;1566;-71
2021/01/12 09:00:27;;;;;;;;;;;;;;;15.86;52.81;101693.09;5030550;28;766;-72
2021/01/12 09:02:54;;;;;;;;;;;;;;;15.82;51.77;101689.69;5029575;28;1279;-72
2021/01/12 09:05:20;;;;;;;;;;;;;;;15.93;50.94;101699.03;5030260;28;1981;-71
2021/01/12 09:07:47;;;;;;;;;;;;;;;16.03;52.19;101700.47;5030704;28;1316;-70
2021/01/12 09:10:13;;;;;;;;;;;;;;;15.90;49.61;101707.00;5030224;28;805;-71
2021/01/12 09:12:40;;;;;;;;;;;;;;;15.80;50.97;101712.53;5029947;28;1370;-71
2021/01/12 09:15:07;;;;;;;;;;;;;;;15.75;50.79;101709.16;5028996;28;703;-72
2021/01/12 09:17:33;;;;;;;;;;;;;;;15.72;51.94;101714.50;5011292;28;1425;-72
2021/01/12 09:19:59;;;;;;;;;;;;;;;15.72;52.01;101713.66;5027834;28;1349;-71
2021/01/12 09:22:29;;;;;;;;;;;;;;;15.70;51.82;101705.81;5027590;28;1279;-71
2021/01/12 09:24:55;;;;;;;;;;;;;;;15.67;51.66;101712.94;5028786;28;1913;-71
2021/01/12 09:27:23;;;;;;;;;;;;;;;15.68;51.78;101710.28;5010933;28;1312;-71
2021/01/12 09:29:50;;;;;;;;;;;;;;;15.68;52.32;101712.91;5045233;28;1219;-71
2021/01/12 09:32:25;;;;;;;;;;;;;;;15.68;51.06;101718.16;5028482;28;1479;-71
2021/01/12 09:34:52;;;;;;;;;;;;;;;15.65;51.25;101727.88;5030035;28;758;-71
2021/01/12 09:37:18;;;;;;;;;;;;;;;15.66;51.36;101729.59;5030359;28;1300;-71
2021/01/12 09:39:45;;;;;;;;;;;;;;;15.67;51.13;101744.44;5030027;28;1221;-72
2021/01/12 09:42:17;;;;;;;;;;;;;;;15.67;50.91;101747.94;5028396;28;1288;-72
2021/01/12 09:44:43;;;;;;;;;;;;;;;15.66;50.88;101733.06;5028344;28;1973;-72
2021/01/12 09:47:10;;;;;;;;;;;;;;;15.67;50.98;101749.72;5030106;28;1210;-72
2021/01/12 09:49:36;;;;;;;;;;;;;;;15.68;50.85;101752.31;5028128;28;789;-73
2021/01/12 09:52:02;;;;;;;;;;;;;;;15.70;51.15;101761.00;5028352;28;1298;-72
2021/01/12 09:54:28;;;;;;;;;;;;;;;15.69;51.43;101763.66;5028224;28;809;-71
2021/01/12 09:56:55;;;;;;;;;;;;;;;15.71;51.84;101775.84;5029945;28;1221;-71
2021/01/12 09:59:21;;;;;;;;;;;;;;;15.73;53.04;101775.78;5029680;28;1777;-71
2021/01/12 10:01:53;;;;;;;;;;;;;;;15.75;52.16;101782.72;5044083;28;1429;-71
2021/01/12 10:04:20;;;;;;;;;;;;;;;15.72;51.57;101772.31;5029415;28;1993;-71
2021/01/12 10:06:47;;;;;;;;;;;;;;;15.76;51.64;101783.59;5029467;28;1072;-74
2021/01/12 10:09:13;;;;;;;;;;;;;;;15.77;51.00;101778.31;5029082;28;1208;-72
2021/01/12 10:11:40;;;;;;;;;;;;;;;15.78;51.60;101780.00;5029145;28;958;-73
2021/01/12 10:14:06;;;;;;;;;;;;;;;15.79;51.73;101786.13;5026212;28;1686;-72
2021/01/12 10:16:34;;;;;;;;;;;;;;;15.82;52.11;101805.31;5026820;28;1088;-73
2021/01/12 10:19:00;;;;;;;;;;;;;;;15.83;51.98;101799.16;5028595;28;1349;-73
2021/01/12 10:21:28;;;;;;;;;;;;;;;15.84;52.01;101785.09;5026748;28;985;-74
2021/01/12 10:23:54;;;;;;;;;;;;;;;15.85;51.95;101778.94;5026823;28;1268;-73
2021/01/12 10:26:20;;;;;;;;;;;;;;;15.86;52.13;101777.19;5028449;28;1906;-74
2021/01/12 10:28:47;;;;;;;;;;;;;;;15.89;51.46;101782.34;5028095;28;1352;-73
2021/01/12 10:31:14;;;;;;;;;;;;;;;15.90;51.77;101794.56;5027172;28;1255;-72
2021/01/12 10:33:42;;;;;;;;;;;;;;;15.90;51.68;101793.72;5044197;28;1414;-73
2021/01/12 10:36:11;;;;;;;;;;;;;;;15.91;51.46;101795.44;5027677;28;996;-73
2021/01/12 10:38:41;;;;;;;;;;;;;;;15.92;51.57;101791.91;5044022;28;1787;-73
2021/01/12 10:41:07;;;;;;;;;;;;;;;15.94;52.10;101787.47;5011030;28;1262;-73
2021/01/12 10:43:34;;;;;;;;;;;;;;;15.94;51.93;101788.31;5028717;28;1225;-73
2021/01/12 10:46:04;;;;;;;;;;;;;;;15.95;51.97;101792.69;5028923;28;2005;-72
2021/01/12 10:48:31;;;;;;;;;;;;;;;15.97;51.62;101801.38;5027332;28;1665;-72
2021/01/12 10:50:59;;;;;;;;;;;;;;;15.99;51.56;101809.22;5028846;28;886;-71
2021/01/12 10:53:26;;;;;;;;;;;;;;;15.98;51.90;101791.72;5028557;28;1319;-71
2021/01/12 10:55:52;;;;;;;;;;;;;;;15.97;51.63;101797.88;5028369;28;1116;-71
2021/01/12 10:58:18;;;;;;;;;;;;;;;15.99;51.64;101803.97;5027234;28;1320;-71
2021/01/12 11:00:47;;;;;;;;;;;;;;;16.00;51.69;101796.03;5027168;28;936;-71
2021/01/12 11:03:13;;;;;;;;;;;;;;;16.01;51.42;101791.63;5011036;28;1267;-71
2021/01/12 11:05:39;;;;;;;;;;;;;;;16.00;51.55;101795.16;5028515;28;1981;-71
2021/01/12 11:08:06;;;;;;;;;;;;;;;16.00;51.72;101803.03;5028789;28;1307;-71
2021/01/12 11:10:32;;;;;;;;;;;;;;;16.01;51.54;101791.63;5043669;28;1147;-71
2021/01/12 11:13:00;;;;;;;;;;;;;;;16.02;51.91;101794.22;5028760;28;1268;-71
2021/01/12 11:15:30;;;;;;;;;;;;;;;15.99;51.66;101796.91;5026793;28;885;-71
2021/01/12 11:17:56;;;;;;;;;;;;;;;16.00;51.63;101795.16;5028909;28;1375;-71
2021/01/12 11:20:23;;;;;;;;;;;;;;;16.00;51.75;101790.78;5027098;28;1178;-71
2021/01/12 11:22:52;;;;;;;;;;;;;;;15.99;51.67;101783.78;5010996;28;1463;-71
2021/01/12 11:25:19;;;;;;;;;;;;;;;15.97;52.12;101779.47;5027095;28;1911;-71
2021/01/12 11:27:45;;;;;;;;;;;;;;;15.97;51.88;101775.09;5032035;28;1299;-71
2021/01/12 11:30:11;;;;;;;;;;;;;;;15.99;52.04;101775.91;5031774;28;799;-71
2021/01/12 11:32:40;;;;;;;;;;;;;;;15.97;51.61;101782.97;5032456;28;1300;-72
2021/01/12 11:35:10;;;;;;;;;;;;;;;15.95;52.41;101776.91;5031903;28;813;-70
2021/01/12 11:37:36;;;;;;;;;;;;;;;15.97;52.02;101776.84;5032222;28;1306;-71
2021/01/12 11:40:04;;;;;;;;;;;;;;;15.97;52.20;101776.84;5030524;28;1609;-72
2021/01/12 11:42:30;;;;;;;;;;;;;;;15.95;52.17;101771.66;5014195;28;1308;-72
2021/01/12 11:44:56;;;;;;;;;;;;;;;15.90;50.70;101770.06;5029633;28;1906;-73
2021/01/12 11:50:22;;;;;;;;;;;;;;;16.18;51.19;101761.31;5028214;28;1204;-73
2021/01/12 11:52:54;;;;;;;;;;;;;;;16.38;50.68;101761.56;5029083;28;1429;-72
2021/01/12 11:55:20;;;;;;;;;;;;;;;16.40;50.57;101748.38;5011622;28;1261;-76
2021/01/12 11:57:46;;;;;;;;;;;;;;;16.51;50.39;101754.13;5010336;28;1584;-75
2021/01/12 12:00:16;;;;;;;;;;;;;;;16.53;50.23;101752.34;5014121;28;1204;-74
2021/01/12 12:02:42;;;;;;;;;;;;;;;16.46;50.38;101753.44;5030768;28;1452;-77
2021/01/12 12:05:13;;;;;;;;;;;;;;;16.44;50.40;101743.88;5014046;28;1902;-72
2021/01/12 12:08:07;;;;;;;;;;;;;;;16.44;50.71;101751.78;5015494;28;1323;-75
2021/01/12 12:10:42;;;;;;;;;;;;;;;16.42;50.78;101744.78;5030472;28;1016;-74
2021/01/12 12:13:41;;;;;;;;;;;;;;;;;;;;;
2021/01/12 12:16:24;;;;;;;;;;;;;;;16.40;51.04;101743.09;5037628;28;838;-71
2021/01/12 12:18:53;;;;;;;;;;;;;;;16.35;51.51;101745.03;5048226;28;1433;-73
2021/01/12 12:21:20;;;;;;;;;;;;;;;16.31;51.55;101738.13;5048137;28;786;-71
2021/01/12 12:23:46;;;;;;;;;;;;;;;16.35;51.62;101729.25;5048041;28;1293;-78
2021/01/12 12:26:16;;;;;;;;;;;;;;;16.32;51.73;101719.66;5031525;28;1910;-80
2021/01/12 12:28:44;;;;;;;;;;;;;;;16.37;48.85;101720.41;5048106;28;1252;-76
2021/01/12 12:31:11;;;;;;;;;;;;;;;16.46;46.76;101723.63;5046897;28;1643;-76
2021/01/12 12:33:38;;;;;;;;;;;;;;;16.41;46.23;101718.53;5048142;28;1350;-76
2021/01/12 12:36:05;;;;;;;;;;;;;;;16.32;47.08;101726.72;5047947;28;960;-76
2021/01/12 12:38:34;;;;;;;;;;;;;;;16.32;46.41;101703.06;5030716;28;1349;-76
2021/01/12 12:41:04;;;;;;;;;;;;;;;16.28;44.95;101711.94;5043246;28;925;-77
2021/01/12 12:43:37;;;;;;;;;;;;;;;16.25;45.91;101712.91;5032285;28;1270;-78
2021/01/12 12:46:03;;;;;;;;;;;;;;;16.22;44.12;101712.13;5029260;28;1973;-77
2021/01/12 12:48:31;;;;;;;;;;;;;;;16.26;43.50;101716.41;5029814;28;1355;-76
2021/01/12 12:50:59;;;;;;;;;;;;;;;16.22;43.60;101713.00;5029881;28;1196;-73
2021/01/12 12:53:26;;;;;;;;;;;;;;;16.19;43.01;101710.47;5026163;28;1303;-78
2021/01/12 12:55:53;;;;;;;;;;;;;;;16.22;42.80;101705.13;4994014;28;1283;-72
2021/01/12 12:58:19;;;;;;;;;;;;;;;16.22;42.72;101712.13;5027768;28;1537;-78